createdAt,value
2022-10-17T00:00:39.655Z,9.13
2022-10-17T00:03:06.677Z,10.88
2022-10-17T00:05:33.741Z,8.57
2022-10-17T00:08:00.519Z,7.88
2022-10-17T00:10:27.278Z,11.38
2022-10-17T00:12:54.161Z,5.95
2022-10-17T00:15:21.907Z,4.80
2022-10-17T00:17:49.039Z,5.20
2022-10-17T00:20:16.057Z,6.60
2022-10-17T00:22:42.823Z,9.38
2022-10-17T00:25:09.957Z,9.20
2022-10-17T00:27:39.001Z,6.45
2022-10-17T00:30:07.761Z,5.90
2022-10-17T00:32:34.502Z,6.88
2022-10-17T00:35:01.693Z,8.68
2022-10-17T00:37:30.037Z,7.63
2022-10-17T00:39:56.903Z,6.25
2022-10-17T00:42:25.193Z,8.18
2022-10-17T00:45:21.774Z,7.05
2022-10-17T00:47:55.778Z,7.05
2022-10-17T00:50:23.498Z,6.95
2022-10-17T00:52:51.157Z,7.15
2022-10-17T00:55:23.313Z,4.57
2022-10-17T00:57:50.758Z,6.57
2022-10-17T01:00:19.893Z,6.07
2022-10-17T01:02:46.847Z,9.25
2022-10-17T01:05:15.280Z,9.60
2022-10-17T01:07:44.130Z,7.57
2022-10-17T01:10:11.952Z,8.02
2022-10-17T01:12:56.734Z,5.03
2022-10-17T01:15:33.864Z,7.72
2022-10-17T01:18:06.695Z,5.60
2022-10-17T01:20:53.207Z,6.32
2022-10-17T01:23:41.252Z,4.25
2022-10-17T01:26:26.765Z,4.82
2022-10-17T01:28:59.782Z,5.82
2022-10-17T01:31:37.150Z,5.75
2022-10-17T01:34:40.608Z,4.03
2022-10-17T01:37:20.393Z,6.15
2022-10-17T01:39:54.316Z,7.88
2022-10-17T01:42:37.739Z,7.80
2022-10-17T01:45:13.572Z,8.18
2022-10-17T01:47:42.277Z,6.38
2022-10-17T01:50:28.484Z,8.57
2022-10-17T01:53:01.269Z,6.18
2022-10-17T01:55:35.606Z,6.38
2022-10-17T01:58:09.103Z,4.63
2022-10-17T02:00:37.902Z,5.95
2022-10-17T02:03:09.425Z,7.15
2022-10-17T02:05:41.217Z,5.13
2022-10-17T02:08:08.522Z,7.45
2022-10-17T02:10:41.355Z,6.38
2022-10-17T02:13:15.941Z,4.97
2022-10-17T02:16:23.018Z,6.68
2022-10-17T02:19:02.536Z,6.75
2022-10-17T02:21:51.456Z,6.45
2022-10-17T02:24:27.733Z,5.43
2022-10-17T02:27:12.078Z,5.95
2022-10-17T02:29:50.196Z,8.30
2022-10-17T02:32:28.970Z,9.75
2022-10-17T02:34:58.409Z,3.13
2022-10-17T02:37:30.363Z,5.00
2022-10-17T02:40:00.503Z,6.38
2022-10-17T02:42:28.900Z,3.55
2022-10-17T02:45:01.135Z,5.63
2022-10-17T02:47:29.688Z,5.03
2022-10-17T02:49:58.563Z,6.50
2022-10-17T02:52:36.518Z,5.72
2022-10-17T02:55:39.326Z,3.70
2022-10-17T02:58:15.130Z,4.55
2022-10-17T03:00:43.683Z,5.97
2022-10-17T03:03:23.124Z,6.93
2022-10-17T03:05:52.126Z,5.82
2022-10-17T03:08:22.891Z,4.15
2022-10-17T03:10:50.288Z,5.45
2022-10-17T03:13:17.872Z,5.53
2022-10-17T03:15:45.570Z,5.60
2022-10-17T03:18:12.583Z,6.57
2022-10-17T03:20:39.389Z,6.57
2022-10-17T03:23:06.174Z,5.50
2022-10-17T03:25:33.405Z,12.13
2022-10-17T03:28:01.500Z,4.07
2022-10-17T03:30:28.975Z,5.55
2022-10-17T03:32:57.919Z,5.00
2022-10-17T03:35:25.140Z,10.23
2022-10-17T03:37:52.782Z,6.63
2022-10-17T03:40:21.630Z,4.80
2022-10-17T03:42:48.383Z,4.75
2022-10-17T03:45:15.194Z,5.95
2022-10-17T03:47:42.482Z,3.25
2022-10-17T03:50:09.926Z,3.78
2022-10-17T03:52:38.525Z,4.00
2022-10-17T03:55:05.801Z,5.10
2022-10-17T03:57:35.069Z,3.63
2022-10-17T04:00:03.132Z,5.30
2022-10-17T04:02:30.006Z,9.30
2022-10-17T04:04:58.119Z,4.88
2022-10-17T04:09:58.084Z,4.47
2022-10-17T04:12:24.990Z,4.35
2022-10-17T04:14:52.411Z,4.55
2022-10-17T04:17:20.875Z,4.93
2022-10-17T04:19:49.905Z,5.15
2022-10-17T04:22:18.129Z,10.23
2022-10-17T04:24:45.006Z,6.75
2022-10-17T04:27:27.623Z,8.40
2022-10-17T04:29:54.472Z,3.53
2022-10-17T04:32:25.693Z,5.13
2022-10-17T04:35:22.021Z,3.47
2022-10-17T04:37:54.964Z,4.35
2022-10-17T04:40:21.994Z,4.55
2022-10-17T04:42:52.543Z,3.33
2022-10-17T04:45:22.400Z,3.58
2022-10-17T04:47:57.564Z,4.10
2022-10-17T04:50:24.376Z,5.55
2022-10-17T04:53:11.101Z,7.07
2022-10-17T04:55:39.117Z,3.78
2022-10-17T04:58:06.093Z,3.45
2022-10-17T05:00:33.178Z,3.05
2022-10-17T05:03:12.085Z,3.72
2022-10-17T05:05:40.202Z,3.42
2022-10-17T05:08:08.753Z,5.75
2022-10-17T05:10:40.077Z,6.03
2022-10-17T05:13:08.646Z,3.50
2022-10-17T05:15:36.723Z,5.20
2022-10-17T05:18:04.984Z,4.35
2022-10-17T05:20:32.487Z,5.07
2022-10-17T05:23:00.420Z,5.72
2022-10-17T05:25:32.002Z,5.00
2022-10-17T05:27:58.841Z,4.53
2022-10-17T05:30:25.895Z,5.57
2022-10-17T05:32:59.040Z,3.40
2022-10-17T05:35:25.929Z,3.65
2022-10-17T05:37:53.128Z,4.70
2022-10-17T05:40:20.999Z,7.03
2022-10-17T05:42:51.192Z,4.10
2022-10-17T05:45:19.447Z,5.90
2022-10-17T05:47:46.431Z,4.60
2022-10-17T05:50:13.351Z,3.30
2022-10-17T05:53:01.596Z,4.53
2022-10-17T05:55:28.646Z,3.35
2022-10-17T05:57:55.562Z,4.15
2022-10-17T06:00:24.668Z,4.53
2022-10-17T06:02:57.494Z,2.60
2022-10-17T06:05:24.580Z,3.10
2022-10-17T06:07:52.645Z,4.10
2022-10-17T06:10:20.715Z,3.75
2022-10-17T06:12:48.399Z,4.10
2022-10-17T06:15:15.824Z,3.33
2022-10-17T06:17:46.874Z,6.32
2022-10-17T06:20:14.180Z,3.20
2022-10-17T06:22:41.007Z,2.67
2022-10-17T06:25:13.821Z,4.65
2022-10-17T06:27:41.429Z,3.53
2022-10-17T06:30:08.800Z,4.78
2022-10-17T06:32:35.623Z,4.45
2022-10-17T06:35:02.446Z,5.03
2022-10-17T06:37:36.525Z,5.57
2022-10-17T06:40:09.103Z,3.70
2022-10-17T06:42:37.680Z,3.25
2022-10-17T06:45:13.711Z,3.60
2022-10-17T06:47:53.075Z,3.40
2022-10-17T06:50:35.522Z,6.00
2022-10-17T06:56:02.994Z,3.72
2022-10-17T07:01:26.622Z,4.93
2022-10-17T07:03:56.998Z,6.63
2022-10-17T07:06:27.342Z,6.18
2022-10-17T07:08:56.435Z,2.28
2022-10-17T07:11:23.335Z,4.72
2022-10-17T07:13:52.463Z,3.97
2022-10-17T07:16:21.323Z,6.43
2022-10-17T07:18:52.777Z,3.63
2022-10-17T07:21:20.529Z,2.75
2022-10-17T07:23:47.333Z,2.55
2022-10-17T07:26:16.335Z,10.02
2022-10-17T07:28:45.572Z,2.58
2022-10-17T07:31:25.372Z,6.32
2022-10-17T07:33:52.274Z,2.25
2022-10-17T07:36:20.345Z,4.03
2022-10-17T07:38:47.425Z,3.13
2022-10-17T07:41:19.184Z,2.17
2022-10-17T07:43:49.078Z,5.22
2022-10-17T07:46:19.569Z,4.43
2022-10-17T07:48:46.366Z,3.40
2022-10-17T07:51:13.646Z,2.75
2022-10-17T07:53:42.720Z,3.00
2022-10-17T07:56:12.457Z,3.40
2022-10-17T07:58:39.693Z,2.97
2022-10-17T08:01:13.901Z,2.38
2022-10-17T08:03:44.333Z,5.20
2022-10-17T08:06:11.536Z,7.03
2022-10-17T08:08:38.379Z,2.28
2022-10-17T08:11:10.362Z,2.15
2022-10-17T08:13:38.354Z,6.82
2022-10-17T08:16:07.970Z,5.35
2022-10-17T08:18:40.326Z,2.60
2022-10-17T08:21:08.413Z,4.88
2022-10-17T08:23:36.402Z,4.20
2022-10-17T08:26:05.197Z,5.95
2022-10-17T08:28:35.369Z,3.70
2022-10-17T08:31:12.075Z,2.28
2022-10-17T08:33:39.116Z,6.47
2022-10-17T08:36:07.029Z,3.17
2022-10-17T08:38:36.327Z,4.30
2022-10-17T08:41:32.097Z,2.60
2022-10-17T08:44:05.785Z,4.88
2022-10-17T08:46:37.375Z,2.80
2022-10-17T08:49:12.072Z,3.63
2022-10-17T08:51:50.432Z,2.67
2022-10-17T08:54:22.430Z,4.47
2022-10-17T08:56:55.256Z,2.40
2022-10-17T08:59:27.651Z,5.20
2022-10-17T09:02:22.912Z,4.47
2022-10-17T09:05:04.716Z,3.53
2022-10-17T09:07:51.062Z,4.65
2022-10-17T09:10:39.209Z,3.58
2022-10-17T09:13:32.701Z,4.10
2022-10-17T09:16:32.324Z,2.13
2022-10-17T09:19:05.040Z,5.47
2022-10-17T09:21:45.985Z,3.95
2022-10-17T09:24:39.043Z,3.92
2022-10-17T09:27:15.101Z,5.28
2022-10-17T09:29:43.935Z,2.17
2022-10-17T09:32:24.521Z,8.70
2022-10-17T09:34:53.294Z,6.57
2022-10-17T09:37:27.150Z,5.93
2022-10-17T09:39:53.928Z,2.88
2022-10-17T09:42:23.858Z,9.57
2022-10-17T09:44:58.150Z,4.97
2022-10-17T09:47:59.492Z,4.30
2022-10-17T09:50:31.959Z,3.08
2022-10-17T09:53:26.807Z,4.43
2022-10-17T09:56:03.437Z,2.78
2022-10-17T09:58:45.471Z,3.13
2022-10-17T10:01:31.586Z,3.58
2022-10-17T10:04:16.683Z,3.33
2022-10-17T10:07:04.610Z,3.65
2022-10-17T10:09:34.832Z,7.30
2022-10-17T10:12:07.704Z,4.07
2022-10-17T10:14:36.907Z,10.85
2022-10-17T10:17:06.794Z,5.75
2022-10-17T10:19:38.787Z,3.03
2022-10-17T10:22:25.906Z,25.42
2022-10-17T10:25:10.895Z,19.92
2022-10-17T10:27:40.896Z,13.27
2022-10-17T10:30:18.222Z,53.00
2022-10-17T10:32:48.725Z,45.97
2022-10-17T10:35:29.354Z,16.25
2022-10-17T10:37:58.815Z,26.70
2022-10-17T10:40:46.960Z,88.30
2022-10-17T10:43:34.889Z,53.22
2022-10-17T10:46:06.120Z,90.88
2022-10-17T10:48:36.664Z,43.22
2022-10-17T10:51:16.369Z,28.88
2022-10-17T10:54:01.837Z,9.07
2022-10-17T10:56:31.133Z,6.95
2022-10-17T10:59:12.389Z,27.08
2022-10-17T11:01:51.969Z,18.95
2022-10-17T11:04:40.980Z,28.55
2022-10-17T11:07:40.008Z,5.15
2022-10-17T11:10:26.606Z,4.53
2022-10-17T11:13:03.590Z,22.50
2022-10-17T11:15:52.733Z,8.70
2022-10-17T11:18:50.454Z,47.55
2022-10-17T11:21:28.870Z,29.13
2022-10-17T11:24:14.369Z,49.47
2022-10-17T11:27:02.876Z,41.80
2022-10-17T11:29:32.926Z,12.80
2022-10-17T11:32:08.292Z,9.00
2022-10-17T11:34:45.229Z,4.07
2022-10-17T11:37:22.954Z,4.47
2022-10-17T11:40:08.575Z,7.32
2022-10-17T11:42:59.433Z,45.70
2022-10-17T11:45:29.470Z,6.53
2022-10-17T11:48:04.303Z,4.03
2022-10-17T11:53:31.339Z,127.95
2022-10-17T11:56:00.762Z,25.60
2022-10-17T11:58:32.652Z,17.38
2022-10-17T12:01:24.606Z,7.00
2022-10-17T12:04:13.916Z,5.60
2022-10-17T12:06:55.909Z,7.65
2022-10-17T12:09:46.047Z,4.18
2022-10-17T12:12:29.247Z,4.03
2022-10-17T12:15:20.697Z,4.93
2022-10-17T12:18:02.971Z,12.70
2022-10-17T12:20:34.983Z,18.13
2022-10-17T12:23:10.715Z,19.05
2022-10-17T12:25:50.524Z,11.43
2022-10-17T12:28:39.317Z,36.45
2022-10-17T12:31:17.437Z,39.25
2022-10-17T12:33:49.909Z,94.95
2022-10-17T12:36:22.540Z,44.30
2022-10-17T12:38:52.231Z,32.55
2022-10-17T12:41:51.425Z,11.43
2022-10-17T12:44:21.375Z,20.27
2022-10-17T12:46:58.220Z,13.52
2022-10-17T12:49:45.457Z,7.40
2022-10-17T12:52:24.150Z,7.40
2022-10-17T12:55:14.403Z,8.05
2022-10-17T12:58:03.580Z,6.65
2022-10-17T13:01:05.292Z,7.80
2022-10-17T13:03:43.487Z,6.68
2022-10-17T13:06:21.151Z,9.15
2022-10-17T13:09:01.034Z,5.75
2022-10-17T13:11:33.405Z,5.35
2022-10-17T13:14:03.413Z,4.10
2022-10-17T13:16:35.308Z,7.03
2022-10-17T13:19:17.883Z,9.75
2022-10-17T13:21:59.841Z,16.50
2022-10-17T13:24:35.275Z,6.30
2022-10-17T13:27:03.341Z,7.43
2022-10-17T13:29:32.162Z,10.52
2022-10-17T13:32:01.472Z,8.30
2022-10-17T13:34:28.628Z,5.90
2022-10-17T13:36:57.988Z,13.55
2022-10-17T13:39:45.334Z,8.55
2022-10-17T13:42:29.498Z,8.50
2022-10-17T13:44:57.790Z,7.60
2022-10-17T13:47:30.568Z,7.40
2022-10-17T13:49:58.362Z,6.13
2022-10-17T13:52:29.496Z,6.20
2022-10-17T13:55:17.567Z,7.30
2022-10-17T13:57:44.572Z,7.72
2022-10-17T14:00:22.924Z,8.27
2022-10-17T14:02:49.832Z,11.15
2022-10-17T14:05:21.272Z,7.03
2022-10-17T14:08:10.625Z,6.85
2022-10-17T14:10:40.033Z,4.65
2022-10-17T14:13:08.432Z,7.70
2022-10-17T14:15:37.077Z,6.20
2022-10-17T14:18:09.063Z,11.73
2022-10-17T14:23:29.625Z,10.13
2022-10-17T14:26:21.469Z,9.35
2022-10-17T14:29:04.773Z,12.38
2022-10-17T14:31:35.024Z,8.95
2022-10-17T14:34:04.266Z,13.10
2022-10-17T14:36:39.495Z,12.02
2022-10-17T14:39:17.107Z,9.32
2022-10-17T14:41:45.903Z,15.48
2022-10-17T14:44:20.811Z,9.45
2022-10-17T14:46:51.278Z,12.15
2022-10-17T14:49:35.634Z,10.15
2022-10-17T14:52:18.523Z,8.13
2022-10-17T14:54:57.063Z,10.60
2022-10-17T14:57:42.640Z,12.75
2022-10-17T15:00:14.973Z,12.27
2022-10-17T15:02:41.887Z,9.50
2022-10-17T15:05:12.972Z,11.70
2022-10-17T15:07:40.676Z,12.52
2022-10-17T15:10:19.823Z,11.43
2022-10-17T15:12:52.161Z,8.27
2022-10-17T15:15:28.753Z,16.02
2022-10-17T15:17:55.935Z,10.80
2022-10-17T15:20:26.207Z,13.75
2022-10-17T15:22:54.272Z,7.78
2022-10-17T15:25:21.609Z,10.82
2022-10-17T15:27:48.500Z,11.82
2022-10-17T15:30:21.700Z,15.00
2022-10-17T15:32:49.141Z,8.98
2022-10-17T15:35:16.827Z,11.20
2022-10-17T15:37:44.016Z,9.57
2022-10-17T15:40:23.113Z,10.77
2022-10-17T15:42:50.257Z,8.70
2022-10-17T15:45:21.583Z,9.05
2022-10-17T15:47:55.809Z,9.77
2022-10-17T15:50:23.093Z,10.70
2022-10-17T15:52:53.181Z,9.60
2022-10-17T15:55:20.441Z,11.80
2022-10-17T15:57:48.719Z,10.27
2022-10-17T16:00:24.306Z,11.15
2022-10-17T16:02:51.406Z,12.02
2022-10-17T16:05:25.460Z,10.98
2022-10-17T16:07:53.536Z,10.95
2022-10-17T16:10:22.186Z,10.98
2022-10-17T16:12:50.266Z,12.75
2022-10-17T16:15:22.938Z,11.82
2022-10-17T16:17:51.110Z,15.00
2022-10-17T16:20:18.634Z,13.95
2022-10-17T16:22:46.379Z,14.73
2022-10-17T16:25:22.072Z,13.75
2022-10-17T16:27:51.445Z,13.38
2022-10-17T16:30:19.154Z,16.80
2022-10-17T16:32:46.460Z,17.45
2022-10-17T16:35:19.179Z,17.63
2022-10-17T16:37:46.013Z,15.18
2022-10-17T16:40:12.828Z,21.10
2022-10-17T16:42:39.738Z,18.10
2022-10-17T16:45:07.123Z,16.67
2022-10-17T16:47:33.867Z,21.30
2022-10-17T16:50:00.621Z,15.48
2022-10-17T16:52:27.525Z,16.75
2022-10-17T16:54:54.430Z,16.95
2022-10-17T16:57:21.136Z,19.65
2022-10-17T16:59:47.905Z,19.40
2022-10-17T17:02:17.580Z,21.42
2022-10-17T17:04:47.317Z,21.20
2022-10-17T17:07:14.147Z,18.92
2022-10-17T17:09:44.427Z,18.13
2022-10-17T17:12:11.232Z,21.10
2022-10-17T17:14:38.699Z,18.95
2022-10-17T17:17:05.447Z,19.63
2022-10-17T17:19:32.272Z,18.35
2022-10-17T17:21:59.002Z,21.23
2022-10-17T17:24:25.733Z,18.58
2022-10-17T17:26:54.941Z,15.82
2022-10-17T17:29:22.818Z,21.75
2022-10-17T17:31:50.164Z,18.35
2022-10-17T17:34:18.295Z,18.85
2022-10-17T17:36:45.410Z,17.67
2022-10-17T17:39:13.686Z,18.40
2022-10-17T17:41:42.353Z,19.05
2022-10-17T17:44:15.568Z,20.77
2022-10-17T17:46:43.849Z,18.02
2022-10-17T17:49:11.695Z,13.27
2022-10-17T17:51:38.708Z,16.05
2022-10-17T17:54:05.448Z,20.98
2022-10-17T17:56:32.480Z,20.80
2022-10-17T17:59:02.090Z,17.73
2022-10-17T18:01:31.153Z,17.02
2022-10-17T18:03:59.050Z,18.02
2022-10-17T18:06:27.306Z,17.63
2022-10-17T18:08:57.949Z,17.52
2022-10-17T18:11:25.347Z,19.33
2022-10-17T18:14:00.706Z,15.63
2022-10-17T18:16:29.185Z,18.50
2022-10-17T18:18:56.464Z,18.02
2022-10-17T18:21:23.433Z,18.17
2022-10-17T18:23:51.714Z,17.20
2022-10-17T18:26:19.857Z,25.67
2022-10-17T18:28:46.900Z,23.73
2022-10-17T18:31:22.208Z,24.05
2022-10-17T18:33:51.821Z,22.53
2022-10-17T18:36:18.890Z,17.17
2022-10-17T18:38:45.648Z,18.58
2022-10-17T18:41:15.288Z,19.83
2022-10-17T18:43:43.389Z,22.85
2022-10-17T18:46:15.934Z,24.40
2022-10-17T18:48:44.608Z,24.05
2022-10-17T18:51:12.910Z,24.92
2022-10-17T18:53:45.137Z,23.95
2022-10-17T18:56:12.615Z,26.98
2022-10-17T18:58:40.340Z,25.02
2022-10-17T19:01:15.579Z,19.73
2022-10-17T19:03:43.991Z,21.73
2022-10-17T19:06:12.795Z,22.42
2022-10-17T19:08:40.208Z,24.80
2022-10-17T19:11:08.540Z,26.63
2022-10-17T19:13:35.516Z,23.52
2022-10-17T19:16:07.624Z,20.95
2022-10-17T19:18:35.461Z,22.65
2022-10-17T19:21:07.244Z,24.05
2022-10-17T19:23:35.926Z,25.70
2022-10-17T19:26:12.187Z,24.55
2022-10-17T19:28:44.295Z,26.55
2022-10-17T19:31:15.410Z,28.60
2022-10-17T19:33:44.802Z,29.67
2022-10-17T19:36:12.647Z,28.05
2022-10-17T19:38:39.814Z,32.88
2022-10-17T19:41:08.204Z,32.53
2022-10-17T19:43:39.393Z,27.77
2022-10-17T19:46:08.864Z,29.45
2022-10-17T19:48:36.871Z,34.55
2022-10-17T19:51:08.590Z,33.13
2022-10-17T19:53:35.565Z,33.60
2022-10-17T19:56:02.539Z,30.48
2022-10-17T19:58:29.366Z,35.60
2022-10-17T20:01:00.971Z,39.25
2022-10-17T20:03:28.886Z,34.42
2022-10-17T20:05:55.661Z,36.80
2022-10-17T20:08:22.603Z,38.78
2022-10-17T20:10:49.398Z,35.95
2022-10-17T20:13:16.183Z,37.85
2022-10-17T20:15:42.918Z,42.42
2022-10-17T20:18:09.816Z,38.03
2022-10-17T20:20:37.791Z,42.80
2022-10-17T20:23:04.777Z,39.15
2022-10-17T20:25:33.389Z,40.33
2022-10-17T20:28:00.477Z,38.42
2022-10-17T20:30:27.226Z,38.70
2022-10-17T20:32:55.633Z,38.90
2022-10-17T20:35:23.249Z,31.15
2022-10-17T20:37:50.198Z,43.53
2022-10-17T20:40:34.190Z,42.15
2022-10-17T20:43:02.778Z,37.50
2022-10-17T20:45:43.808Z,38.72
2022-10-17T20:48:16.724Z,45.47
2022-10-17T20:50:44.315Z,40.63
2022-10-17T20:53:35.416Z,44.00
2022-10-17T20:56:07.397Z,39.90
2022-10-17T20:58:34.467Z,41.33
2022-10-17T21:01:09.415Z,39.10
2022-10-17T21:03:39.772Z,34.50
2022-10-17T21:06:10.092Z,29.02
2022-10-17T21:08:36.828Z,29.63
2022-10-17T21:11:08.484Z,28.80
2022-10-17T21:13:35.276Z,31.40
2022-10-17T21:16:13.229Z,26.38
2022-10-17T21:18:41.061Z,22.05
2022-10-17T21:21:15.211Z,18.67
2022-10-17T21:23:44.180Z,20.30
2022-10-17T21:26:12.721Z,17.55
2022-10-17T21:28:40.603Z,17.23
2022-10-17T21:31:17.067Z,16.70
2022-10-17T21:33:46.978Z,16.25
2022-10-17T21:36:16.749Z,18.20
2022-10-17T21:38:45.482Z,18.27
2022-10-17T21:41:14.114Z,17.27
2022-10-17T21:43:41.811Z,25.00
2022-10-17T21:46:18.805Z,22.48
2022-10-17T21:48:47.080Z,20.73
2022-10-17T21:51:16.576Z,18.75
2022-10-17T21:53:44.076Z,20.27
2022-10-17T21:56:16.236Z,20.33
2022-10-17T21:58:43.773Z,22.50
2022-10-17T22:01:10.631Z,23.60
2022-10-17T22:03:42.713Z,21.35
2022-10-17T22:09:02.418Z,24.30
2022-10-17T22:11:31.565Z,25.77
2022-10-17T22:14:04.388Z,20.23
2022-10-17T22:16:31.304Z,20.48
2022-10-17T22:19:03.157Z,17.73
2022-10-17T22:21:33.826Z,22.95
2022-10-17T22:24:03.404Z,13.80
2022-10-17T22:26:31.896Z,18.95
2022-10-17T22:28:58.820Z,15.10
2022-10-17T22:31:26.414Z,18.15
2022-10-17T22:33:53.346Z,9.70
2022-10-17T22:36:20.230Z,18.17
2022-10-17T22:38:47.298Z,16.02
2022-10-17T22:41:14.070Z,19.33
2022-10-17T22:43:40.957Z,19.95
2022-10-17T22:46:08.057Z,16.17
2022-10-17T22:48:35.358Z,17.08
2022-10-17T22:51:02.495Z,16.85
2022-10-17T22:53:30.038Z,20.13
2022-10-17T22:56:02.327Z,17.05
2022-10-17T22:58:30.547Z,18.45
2022-10-17T23:00:57.874Z,21.60
2022-10-17T23:03:26.974Z,19.33
2022-10-17T23:05:53.938Z,18.17
2022-10-17T23:08:21.259Z,20.75
2022-10-17T23:10:48.579Z,22.02
2022-10-17T23:13:16.394Z,22.80
2022-10-17T23:15:43.682Z,23.77
2022-10-17T23:18:10.621Z,22.67
2022-10-17T23:20:37.887Z,25.05
2022-10-17T23:23:05.065Z,24.30
2022-10-17T23:25:34.239Z,24.25
2022-10-17T23:28:02.166Z,27.15
2022-10-17T23:30:31.354Z,30.90
2022-10-17T23:32:58.108Z,24.98
2022-10-17T23:35:25.035Z,22.15
2022-10-17T23:37:51.884Z,27.30
2022-10-17T23:40:18.818Z,24.05
2022-10-17T23:42:45.651Z,26.60
2022-10-17T23:45:12.567Z,27.55
2022-10-17T23:47:39.491Z,19.38
2022-10-17T23:50:06.804Z,20.02
2022-10-17T23:52:33.684Z,25.42
2022-10-17T23:55:00.737Z,21.98
2022-10-17T23:57:27.526Z,24.73
2022-10-17T23:59:55.402Z,24.00
